Overview Statistics Trail Chart Weather Telemetry Raw packets
 

This is the latest recevied weather packets stored in our database for station/object KA1JKB. If no packets are shown the sender has not sent any weather packets the latest 10 day(s).

<< 82 83 84 85 86 87 88 >>
Time Temp. Humidity Pressure Rain* Wind** Luminosity Snow
1787837275 19.44° C 99% 1012.2 hPa 0 mm - 380 W/m² -
1787836970 19.44° C 99% 1012.2 hPa 0 mm - 356 W/m² -
1787836665 19.44° C 99% 1012.1 hPa 0 mm - 344 W/m² -
1787836365 18.89° C 99% 1012.3 hPa 0 mm - 362 W/m² -
1787836060 18.89° C 99% 1012.1 hPa 0 mm - 341 W/m² -
1787835756 18.89° C 99% 1011.9 hPa 0 mm - 254 W/m² -
1787835450 18.33° C 99% 1012.2 hPa 0 mm - 282 W/m² -
1787835146 18.89° C 99% 1012.1 hPa 0 mm - 252 W/m² -
1787834845 18.33° C 99% 1011.9 hPa 0 mm - 212 W/m² -
1787834540 18.33° C 99% 1011.9 hPa 0 mm - 184 W/m² -
1787834235 17.78° C 99% 1011.8 hPa 0 mm - 128 W/m² -
1787833931 17.78° C 99% 1011.8 hPa 0 mm - 147 W/m² -
1787833626 17.78° C 99% 1011.6 hPa 0 mm - 129 W/m² -
1787833322 17.78° C 99% 1011.7 hPa 0 mm - 114 W/m² -
1787833017 17.78° C 99% 1011.7 hPa 0 mm - 75 W/m² -
1787832713 17.22° C 99% 1011.7 hPa 0 mm - 59 W/m² -
1787832411 17.22° C 99% 1011.6 hPa 0 mm - 54 W/m² -
1787832111 17.22° C 99% 1011.5 hPa 0 mm - 49 W/m² -
1787831809 16.67° C 99% 1011.6 hPa 0 mm - 46 W/m² -
1787831510 16.67° C 99% 1011.5 hPa 0 mm - 42 W/m² -
1787831208 16.67° C 99% 1011.3 hPa 0 mm - 38 W/m² -
1787830905 16.11° C 99% 1011.2 hPa 0 mm - 34 W/m² -
1787830604 15.56° C 99% 1011.3 hPa 0 mm - 28 W/m² -
1787830303 15.56° C 99% 1011.2 hPa 0 mm - 25 W/m² -
1787829998 15.56° C 99% 1011 hPa 0 mm - 21 W/m² -

* Rain latest hour (hover to see other rain measurements)
** Current wind speed in m/s (hover to see current wind gust speed)